WWD weather

Cape May County Airport
Wildwood, New Jersey, United States

Public forecast

Using degrees Fahrenheit for public forecast. Weather courtesy of forecast.io.

Current aviation weather report (METAR) for Cape May County Airport

Retrieved 2020/02/17 02:56 UTC (19 minutes ago):

KWWD 170256Z AUTO 00000KT 10SM FEW120 03/02 A3012 RMK AO2 SLP201 T00280017 55001

Closest aviation forecast (TAF) to Cape May County Airport

Closest forecast is Millville Municipal Airport, 22.9 nm (42.4 km) NNW. Retrieved 2020-02-17 00:22 UTC (3 hours ago):

TAF KMIV 162320Z 1700/1724 VRB04KT P6SM BKN100 FM171200 01006KT P6SM SCT150 FM172100 05005KT P6SM SCT200